createdAt,value
2022-12-17T00:00:34.167Z,202.63
2022-12-17T00:03:34.565Z,197.20
2022-12-17T00:06:31.649Z,194.00
2022-12-17T00:09:25.483Z,196.52
2022-12-17T00:12:19.397Z,189.15
2022-12-17T00:15:19.021Z,185.60
2022-12-17T00:18:28.175Z,207.77
2022-12-17T00:21:27.934Z,204.98
2022-12-17T00:24:21.763Z,224.65
2022-12-17T00:27:18.936Z,209.15
2022-12-17T00:30:09.694Z,220.05
2022-12-17T00:33:09.651Z,227.02
2022-12-17T00:36:12.913Z,217.15
2022-12-17T00:39:10.174Z,213.13
2022-12-17T00:42:09.423Z,231.55
2022-12-17T00:45:07.106Z,204.32
2022-12-17T00:47:57.924Z,209.45
2022-12-17T00:50:59.793Z,219.93
2022-12-17T00:54:11.078Z,198.40
2022-12-17T00:57:12.464Z,220.13
2022-12-17T01:00:05.319Z,211.20
2022-12-17T01:03:00.155Z,213.57
2022-12-17T01:06:01.929Z,221.50
2022-12-17T01:09:01.033Z,208.38
2022-12-17T01:12:01.160Z,199.10
2022-12-17T01:14:51.978Z,223.48
2022-12-17T01:17:48.908Z,210.07
2022-12-17T01:20:39.675Z,207.50
2022-12-17T01:23:42.805Z,209.73
2022-12-17T01:26:37.992Z,201.52
2022-12-17T01:29:32.381Z,202.80
2022-12-17T01:32:26.000Z,191.73
2022-12-17T01:35:18.905Z,214.00
2022-12-17T01:38:12.709Z,194.25
2022-12-17T01:41:16.918Z,204.65
2022-12-17T01:44:18.382Z,190.02
2022-12-17T01:47:16.256Z,188.32
2022-12-17T01:50:10.053Z,174.15
2022-12-17T01:53:14.883Z,195.30
2022-12-17T01:56:09.870Z,191.32
2022-12-17T01:59:03.728Z,201.20
2022-12-17T02:02:05.426Z,191.35
2022-12-17T02:04:57.204Z,181.30
2022-12-17T02:08:23.951Z,185.95
2022-12-17T02:11:43.996Z,178.13
2022-12-17T02:14:49.523Z,183.85
2022-12-17T02:18:00.156Z,188.18
2022-12-17T02:21:13.304Z,184.60
2022-12-17T02:24:24.630Z,179.60
2022-12-17T02:27:38.592Z,184.13
2022-12-17T02:30:38.968Z,183.15
2022-12-17T02:33:38.920Z,193.73
2022-12-17T02:36:41.917Z,171.40
2022-12-17T02:39:40.009Z,181.40
2022-12-17T02:42:38.448Z,178.10
2022-12-17T02:45:33.909Z,182.57
2022-12-17T02:48:27.265Z,166.38
2022-12-17T02:51:20.432Z,170.75
2022-12-17T02:54:20.488Z,178.00
2022-12-17T02:57:17.855Z,182.15
2022-12-17T03:00:11.619Z,176.25
2022-12-17T03:03:08.780Z,175.10
2022-12-17T03:05:58.695Z,167.65
2022-12-17T03:09:05.878Z,179.10
2022-12-17T03:12:02.554Z,180.15
2022-12-17T03:14:53.873Z,181.55
2022-12-17T03:17:50.779Z,175.38
2022-12-17T03:20:50.971Z,176.57
2022-12-17T03:23:44.330Z,159.55
2022-12-17T03:26:45.801Z,162.90
2022-12-17T03:29:44.679Z,153.65
2022-12-17T03:32:36.310Z,160.70
2022-12-17T03:35:30.867Z,151.52
2022-12-17T03:38:31.561Z,151.70
2022-12-17T03:41:28.190Z,155.30
2022-12-17T03:44:27.665Z,157.68
2022-12-17T03:47:26.916Z,166.55
2022-12-17T03:50:26.018Z,164.43
2022-12-17T03:53:29.013Z,152.80
2022-12-17T03:56:31.303Z,164.77
2022-12-17T03:59:31.157Z,154.50
2022-12-17T04:02:28.224Z,162.65
2022-12-17T04:05:21.980Z,153.90
2022-12-17T04:08:18.898Z,154.40
2022-12-17T04:11:18.297Z,158.43
2022-12-17T04:14:10.162Z,146.85
2022-12-17T04:17:07.526Z,141.85
2022-12-17T04:20:09.980Z,151.48
2022-12-17T04:23:07.314Z,149.65
2022-12-17T04:26:05.785Z,147.63
2022-12-17T04:29:10.221Z,143.18
2022-12-17T04:32:10.759Z,140.85
2022-12-17T04:35:04.517Z,146.68
2022-12-17T04:37:59.150Z,144.70
2022-12-17T04:40:55.560Z,159.57
2022-12-17T04:43:49.957Z,157.07
2022-12-17T04:46:46.186Z,151.00
2022-12-17T04:49:59.459Z,137.98
2022-12-17T04:53:01.097Z,155.13
2022-12-17T04:56:00.202Z,140.18
2022-12-17T04:58:51.083Z,154.18
2022-12-17T05:01:47.770Z,145.90
2022-12-17T05:04:42.028Z,138.68
2022-12-17T05:07:41.208Z,148.63
2022-12-17T05:10:40.657Z,137.73
2022-12-17T05:13:49.785Z,135.55
2022-12-17T05:16:52.347Z,140.48
2022-12-17T05:19:50.116Z,147.15
2022-12-17T05:22:44.578Z,138.38
2022-12-17T05:25:38.826Z,150.13
2022-12-17T05:28:44.796Z,131.38
2022-12-17T05:31:46.956Z,130.25
2022-12-17T05:34:44.240Z,134.15
2022-12-17T05:37:41.041Z,142.80
2022-12-17T05:40:35.067Z,134.20
2022-12-17T05:43:37.349Z,139.40
2022-12-17T05:46:34.419Z,131.85
2022-12-17T05:49:31.872Z,138.68
2022-12-17T05:52:31.057Z,132.07
2022-12-17T05:55:36.262Z,121.63
2022-12-17T05:58:36.834Z,141.60
2022-12-17T06:01:36.332Z,126.72
2022-12-17T06:04:33.748Z,121.72
2022-12-17T06:07:33.956Z,132.55
2022-12-17T06:10:25.537Z,126.30
2022-12-17T06:13:25.077Z,129.80
2022-12-17T06:16:21.288Z,109.45
2022-12-17T06:19:12.213Z,117.00
2022-12-17T06:22:15.054Z,107.78
2022-12-17T06:25:12.011Z,113.07
2022-12-17T06:28:28.064Z,119.35
2022-12-17T06:31:21.596Z,127.50
2022-12-17T06:34:20.661Z,105.30
2022-12-17T06:37:11.493Z,117.30
2022-12-17T06:42:59.946Z,114.55
2022-12-17T06:45:59.696Z,120.93
2022-12-17T06:48:56.512Z,116.50
2022-12-17T06:51:49.910Z,113.80
2022-12-17T06:54:46.307Z,103.97
2022-12-17T06:57:50.502Z,99.88
2022-12-17T07:00:47.995Z,104.88
2022-12-17T07:03:41.853Z,100.93
2022-12-17T07:06:35.838Z,106.07
2022-12-17T07:12:23.986Z,97.03
2022-12-17T07:15:23.817Z,97.75
2022-12-17T07:18:25.088Z,105.13
2022-12-17T07:21:21.258Z,97.82
2022-12-17T07:24:15.153Z,111.07
2022-12-17T07:27:08.969Z,93.55
2022-12-17T07:30:03.932Z,97.18
2022-12-17T07:33:06.895Z,99.90
2022-12-17T07:35:57.521Z,103.38
2022-12-17T07:38:59.836Z,94.55
2022-12-17T07:41:57.481Z,105.40
2022-12-17T07:44:52.142Z,108.55
2022-12-17T07:47:51.619Z,108.15
2022-12-17T07:50:51.054Z,92.20
2022-12-17T07:53:49.877Z,93.75
2022-12-17T07:56:43.643Z,100.68
2022-12-17T07:59:41.872Z,99.32
2022-12-17T08:02:43.247Z,98.53
2022-12-17T08:05:44.616Z,100.20
2022-12-17T08:08:44.367Z,85.45
2022-12-17T08:11:38.408Z,92.25
2022-12-17T08:14:37.910Z,93.68
2022-12-17T08:17:40.538Z,96.30
2022-12-17T08:20:47.292Z,94.50
2022-12-17T08:23:56.580Z,102.35
2022-12-17T08:26:53.963Z,87.60
2022-12-17T08:30:04.022Z,91.68
2022-12-17T08:33:10.737Z,89.15
2022-12-17T08:36:15.919Z,95.72
2022-12-17T08:39:12.325Z,94.13
2022-12-17T08:42:11.933Z,105.05
2022-12-17T08:45:19.777Z,104.70
2022-12-17T08:48:48.245Z,96.03
2022-12-17T08:51:48.837Z,90.72
2022-12-17T08:54:45.454Z,99.47
2022-12-17T08:57:44.383Z,109.22
2022-12-17T09:00:41.500Z,99.00
2022-12-17T09:03:36.081Z,101.88
2022-12-17T09:06:27.718Z,111.20
2022-12-17T09:09:25.851Z,95.80
2022-12-17T09:12:22.282Z,100.47
2022-12-17T09:15:22.761Z,99.38
2022-12-17T09:18:25.814Z,106.55
2022-12-17T09:21:23.012Z,102.93
2022-12-17T09:24:22.566Z,108.15
2022-12-17T09:27:20.067Z,106.35
2022-12-17T09:30:17.938Z,103.82
2022-12-17T09:33:15.363Z,104.53
2022-12-17T09:36:37.577Z,108.05
2022-12-17T09:39:40.277Z,107.05
2022-12-17T09:43:02.709Z,104.45
2022-12-17T09:46:21.518Z,108.75
2022-12-17T09:49:37.670Z,102.43
2022-12-17T09:52:50.256Z,111.95
2022-12-17T09:56:03.859Z,109.07
2022-12-17T09:59:07.578Z,120.27
2022-12-17T10:02:06.073Z,123.50
2022-12-17T10:05:30.601Z,117.30
2022-12-17T10:08:40.232Z,118.53
2022-12-17T10:11:48.189Z,119.07
2022-12-17T10:14:47.229Z,108.60
2022-12-17T10:17:48.930Z,123.22
2022-12-17T10:21:10.338Z,120.60
2022-12-17T10:24:22.652Z,111.80
2022-12-17T10:27:38.969Z,121.22
2022-12-17T10:30:44.000Z,110.75
2022-12-17T10:33:45.793Z,118.68
2022-12-17T10:36:54.776Z,110.60
2022-12-17T10:39:49.293Z,112.20
2022-12-17T10:42:58.000Z,103.88
2022-12-17T10:45:54.796Z,99.20
2022-12-17T10:48:59.439Z,109.55
2022-12-17T10:51:56.998Z,111.20
2022-12-17T10:55:12.307Z,111.72
2022-12-17T10:58:11.193Z,108.07
2022-12-17T11:01:09.017Z,106.57
2022-12-17T11:04:11.654Z,124.13
2022-12-17T11:07:05.460Z,112.43
2022-12-17T11:10:21.195Z,111.35
2022-12-17T11:13:15.278Z,121.68
2022-12-17T11:16:17.132Z,108.82
2022-12-17T11:19:14.435Z,111.28
2022-12-17T11:22:21.131Z,119.97
2022-12-17T11:25:46.912Z,99.13
2022-12-17T11:28:55.133Z,103.10
2022-12-17T11:32:17.519Z,104.30
2022-12-17T11:35:32.786Z,100.72
2022-12-17T11:38:58.165Z,111.90
2022-12-17T11:42:11.545Z,91.38
2022-12-17T11:45:25.283Z,93.55
2022-12-17T11:48:49.010Z,100.55
2022-12-17T11:52:21.459Z,103.13
2022-12-17T11:55:41.857Z,102.78
2022-12-17T11:58:59.446Z,92.93
2022-12-17T12:02:15.710Z,103.47
2022-12-17T12:05:37.388Z,98.47
2022-12-17T12:08:45.575Z,102.40
2022-12-17T12:12:29.950Z,99.07
2022-12-17T12:15:59.059Z,101.03
2022-12-17T12:19:20.797Z,98.43
2022-12-17T12:23:04.963Z,94.82
2022-12-17T12:26:07.084Z,94.13
2022-12-17T12:29:21.751Z,88.97
2022-12-17T12:32:38.172Z,102.15
2022-12-17T12:35:42.917Z,94.43
2022-12-17T12:38:56.295Z,82.88
2022-12-17T12:42:02.202Z,96.88
2022-12-17T12:45:34.799Z,107.70
2022-12-17T12:49:04.542Z,100.85
2022-12-17T12:51:57.338Z,83.72
2022-12-17T12:54:50.977Z,87.80
2022-12-17T12:57:53.773Z,83.32
2022-12-17T13:01:11.765Z,87.10
2022-12-17T13:04:47.895Z,87.28
2022-12-17T13:07:34.079Z,104.45
2022-12-17T13:10:37.590Z,95.00
2022-12-17T13:13:40.106Z,98.20
2022-12-17T13:16:43.720Z,85.05
2022-12-17T13:19:38.362Z,85.97
2022-12-17T13:22:24.106Z,90.38
2022-12-17T13:25:22.340Z,99.18
2022-12-17T13:28:03.410Z,103.82
2022-12-17T13:30:42.010Z,98.70
2022-12-17T13:33:53.858Z,114.07
2022-12-17T13:37:06.209Z,103.20
2022-12-17T13:40:25.911Z,109.80
2022-12-17T13:43:17.666Z,88.82
2022-12-17T13:46:06.261Z,93.88
2022-12-17T13:48:58.186Z,92.95
2022-12-17T13:51:41.020Z,90.00
2022-12-17T13:54:32.193Z,101.18
2022-12-17T13:57:39.586Z,102.57
2022-12-17T14:00:28.128Z,105.50
2022-12-17T14:03:42.847Z,116.78
2022-12-17T14:06:30.896Z,132.95
2022-12-17T14:09:12.217Z,112.07
2022-12-17T14:12:27.090Z,101.38
2022-12-17T14:15:08.720Z,116.65
2022-12-17T14:17:56.707Z,125.18
2022-12-17T14:20:38.166Z,121.68
2022-12-17T14:23:35.614Z,170.38
2022-12-17T14:26:21.542Z,113.25
2022-12-17T14:29:19.329Z,99.00
2022-12-17T14:32:07.230Z,99.18
2022-12-17T14:35:00.780Z,97.45
2022-12-17T14:37:37.632Z,110.65
2022-12-17T14:42:55.492Z,116.15
2022-12-17T14:46:01.382Z,101.53
2022-12-17T14:49:06.070Z,103.55
2022-12-17T14:51:45.166Z,108.90
2022-12-17T14:54:45.398Z,101.30
2022-12-17T14:57:30.708Z,144.57
2022-12-17T15:00:16.351Z,100.68
2022-12-17T15:03:01.379Z,100.33
2022-12-17T15:05:46.507Z,105.75
2022-12-17T15:08:54.180Z,100.95
2022-12-17T15:11:29.621Z,114.95
2022-12-17T15:14:21.995Z,110.60
2022-12-17T15:17:04.680Z,117.03
2022-12-17T15:19:45.401Z,111.00
2022-12-17T15:22:31.877Z,117.73
2022-12-17T15:25:13.410Z,117.53
2022-12-17T15:28:01.776Z,118.78
2022-12-17T15:30:42.687Z,111.20
2022-12-17T15:33:19.562Z,111.00
2022-12-17T15:36:11.076Z,110.50
2022-12-17T15:38:50.802Z,119.45
2022-12-17T15:41:52.125Z,122.85
2022-12-17T15:44:50.757Z,138.20
2022-12-17T15:47:32.290Z,114.57
2022-12-17T15:50:22.461Z,121.53
2022-12-17T15:53:09.425Z,147.60
2022-12-17T15:55:45.534Z,132.15
2022-12-17T15:58:33.648Z,127.85
2022-12-17T16:01:13.933Z,128.00
2022-12-17T16:03:55.607Z,121.05
2022-12-17T16:06:36.162Z,125.53
2022-12-17T16:09:26.166Z,125.45
2022-12-17T16:12:13.643Z,116.80
2022-12-17T16:14:54.871Z,126.70
2022-12-17T16:17:43.056Z,120.20
2022-12-17T16:20:29.594Z,135.90
2022-12-17T16:23:04.302Z,145.82
2022-12-17T16:25:46.696Z,124.72
2022-12-17T16:28:30.401Z,129.80
2022-12-17T16:33:56.044Z,120.18
2022-12-17T16:36:52.842Z,147.90
2022-12-17T16:39:34.196Z,176.63
2022-12-17T16:42:17.666Z,154.55
2022-12-17T16:45:11.278Z,150.85
2022-12-17T16:48:00.071Z,133.50
2022-12-17T16:50:38.757Z,143.32
2022-12-17T16:53:24.601Z,135.00
2022-12-17T16:56:07.608Z,121.47
2022-12-17T16:58:52.781Z,138.07
2022-12-17T17:01:57.153Z,119.35
2022-12-17T17:04:39.496Z,132.57
2022-12-17T17:07:14.874Z,96.03
2022-12-17T17:10:03.502Z,127.70
2022-12-17T17:12:41.177Z,130.77
2022-12-17T17:15:19.147Z,108.07
2022-12-17T17:18:01.974Z,103.30
2022-12-17T17:20:42.219Z,107.38
2022-12-17T17:23:22.753Z,110.22
2022-12-17T17:26:07.086Z,131.95
2022-12-17T17:28:47.657Z,113.88
2022-12-17T17:34:52.682Z,101.18
2022-12-17T17:37:37.128Z,93.55
2022-12-17T17:40:27.983Z,100.18
2022-12-17T17:43:09.868Z,105.38
2022-12-17T17:45:44.996Z,128.65
2022-12-17T17:48:31.775Z,101.47
2022-12-17T17:51:52.011Z,106.30
2022-12-17T17:54:42.469Z,109.90
2022-12-17T17:57:22.825Z,104.75
2022-12-17T18:00:10.448Z,105.38
2022-12-17T18:02:54.003Z,113.65
2022-12-17T18:05:42.634Z,94.68
2022-12-17T18:08:20.417Z,110.10
2022-12-17T18:11:06.596Z,114.88
2022-12-17T18:14:00.472Z,110.85
2022-12-17T18:16:48.020Z,100.80
2022-12-17T18:19:32.219Z,113.00
2022-12-17T18:22:26.503Z,108.38
2022-12-17T18:25:10.672Z,127.88
2022-12-17T18:27:54.713Z,123.43
2022-12-17T18:30:33.581Z,104.57
2022-12-17T18:33:15.331Z,91.97
2022-12-17T18:35:57.584Z,91.93
2022-12-17T18:38:39.465Z,96.47
2022-12-17T18:41:32.006Z,110.45
2022-12-17T18:44:18.204Z,103.88
2022-12-17T18:47:11.509Z,109.15
2022-12-17T18:49:55.689Z,108.20
2022-12-17T18:52:35.261Z,108.85
2022-12-17T18:55:21.089Z,100.63
2022-12-17T18:57:59.817Z,97.18
2022-12-17T19:00:49.445Z,108.43
2022-12-17T19:03:25.336Z,95.78
2022-12-17T19:06:19.225Z,135.63
2022-12-17T19:11:44.526Z,97.25
2022-12-17T19:14:23.682Z,93.35
2022-12-17T19:17:15.802Z,104.60
2022-12-17T19:20:00.415Z,100.95
2022-12-17T19:22:47.676Z,95.78
2022-12-17T19:25:25.582Z,96.90
2022-12-17T19:28:11.973Z,111.45
2022-12-17T19:30:52.808Z,95.65
2022-12-17T19:33:34.025Z,94.63
2022-12-17T19:36:28.476Z,128.18
2022-12-17T19:39:27.990Z,106.05
2022-12-17T19:42:03.580Z,93.57
2022-12-17T19:44:57.064Z,93.55
2022-12-17T19:48:14.634Z,87.97
2022-12-17T19:51:07.393Z,84.10
2022-12-17T19:54:09.506Z,88.07
2022-12-17T19:56:51.511Z,84.35
2022-12-17T19:59:34.379Z,77.85
2022-12-17T20:02:21.920Z,82.47
2022-12-17T20:05:06.147Z,83.80
2022-12-17T20:07:48.134Z,85.63
2022-12-17T20:10:37.015Z,70.28
2022-12-17T20:13:20.576Z,79.40
2022-12-17T20:16:18.801Z,67.45
2022-12-17T20:18:58.572Z,71.20
2022-12-17T20:21:47.535Z,67.72
2022-12-17T20:24:32.336Z,75.45
2022-12-17T20:27:16.617Z,68.95
2022-12-17T20:29:58.898Z,69.95
2022-12-17T20:32:53.547Z,73.22
2022-12-17T20:35:53.394Z,75.20
2022-12-17T20:38:45.824Z,69.57
2022-12-17T20:41:27.763Z,78.30
2022-12-17T20:44:19.964Z,73.63
2022-12-17T20:47:11.137Z,73.50
2022-12-17T20:49:51.529Z,74.00
2022-12-17T20:52:37.366Z,73.30
2022-12-17T20:55:25.277Z,74.05
2022-12-17T20:58:16.548Z,67.72
2022-12-17T21:01:00.102Z,72.68
2022-12-17T21:06:21.988Z,65.97
2022-12-17T21:09:12.842Z,81.75
2022-12-17T21:11:47.092Z,76.43
2022-12-17T21:14:46.875Z,64.22
2022-12-17T21:17:30.955Z,66.07
2022-12-17T21:20:23.606Z,61.75
2022-12-17T21:23:07.928Z,77.95
2022-12-17T21:25:55.123Z,67.95
2022-12-17T21:28:45.036Z,72.35
2022-12-17T21:31:37.738Z,71.28
2022-12-17T21:34:24.340Z,67.18
2022-12-17T21:37:05.684Z,72.50
2022-12-17T21:40:02.451Z,64.72
2022-12-17T21:43:03.638Z,66.55
2022-12-17T21:45:57.675Z,71.90
2022-12-17T21:51:33.456Z,65.90
2022-12-17T21:54:20.033Z,65.10
2022-12-17T21:57:06.509Z,67.00
2022-12-17T21:59:51.109Z,72.68
2022-12-17T22:02:35.251Z,79.85
2022-12-17T22:05:23.487Z,67.30
2022-12-17T22:08:12.814Z,66.65
2022-12-17T22:11:19.653Z,57.40
2022-12-17T22:14:12.713Z,70.55
2022-12-17T22:17:01.634Z,68.68
2022-12-17T22:19:40.529Z,71.50
2022-12-17T22:22:27.322Z,67.18
2022-12-17T22:25:24.083Z,55.97
2022-12-17T22:28:10.222Z,58.58
2022-12-17T22:31:12.869Z,66.25
2022-12-17T22:35:09.205Z,66.70
2022-12-17T22:40:29.337Z,63.80
2022-12-17T22:44:30.302Z,60.25
2022-12-17T22:44:41.674Z,74.00
2022-12-17T22:46:44.430Z,62.15
2022-12-17T22:49:25.273Z,65.22
2022-12-17T22:52:05.774Z,66.88
2022-12-17T22:54:47.833Z,68.38
2022-12-17T22:57:36.487Z,64.63
2022-12-17T23:00:34.602Z,66.22
2022-12-17T23:03:28.180Z,61.42
2022-12-17T23:06:48.599Z,71.63
2022-12-17T23:09:37.729Z,57.15
2022-12-17T23:12:33.331Z,64.10
2022-12-17T23:15:13.572Z,65.97
2022-12-17T23:17:58.271Z,61.75
2022-12-17T23:20:39.388Z,61.85
2022-12-17T23:23:19.467Z,71.15
2022-12-17T23:26:06.160Z,47.17
2022-12-17T23:28:57.359Z,65.47
2022-12-17T23:31:40.647Z,62.05
2022-12-17T23:34:26.502Z,61.65
2022-12-17T23:37:08.149Z,60.85
2022-12-17T23:39:58.828Z,60.08
2022-12-17T23:42:39.895Z,60.25
2022-12-17T23:45:23.104Z,73.32
2022-12-17T23:48:12.943Z,69.03
2022-12-17T23:50:59.717Z,59.42
2022-12-17T23:53:49.101Z,56.78
2022-12-17T23:56:30.938Z,61.40
2022-12-17T23:59:12.900Z,67.38
